sensor_id;sensor_type;location;lat;lon;timestamp;pressure;altitude;pressure_sealevel;temperature;humidity
40954;BME280;26686;50.130;8.710;2023-03-03T00:02:41;100503.66;;;6.11;49.18
40954;BME280;26686;50.130;8.710;2023-03-03T00:07:44;100506.06;;;5.99;49.79
40954;BME280;26686;50.130;8.710;2023-03-03T00:12:47;100471.75;;;5.68;50.30
40954;BME280;26686;50.130;8.710;2023-03-03T00:17:50;100518.63;;;5.94;50.50
40954;BME280;26686;50.130;8.710;2023-03-03T00:22:52;100521.47;;;5.91;51.17
40954;BME280;26686;50.130;8.710;2023-03-03T00:27:53;100526.91;;;5.88;51.45
40954;BME280;26686;50.130;8.710;2023-03-03T00:32:55;100519.53;;;5.79;52.12
40954;BME280;26686;50.130;8.710;2023-03-03T00:37:58;100538.75;;;5.81;52.10
40954;BME280;26686;50.130;8.710;2023-03-03T00:43:01;100540.34;;;5.69;53.58
40954;BME280;26686;50.130;8.710;2023-03-03T00:48:20;100537.94;;;5.64;53.52
40954;BME280;26686;50.130;8.710;2023-03-03T00:53:27;100539.47;;;5.69;54.56
40954;BME280;26686;50.130;8.710;2023-03-03T00:58:30;100541.50;;;5.63;54.88
40954;BME280;26686;50.130;8.710;2023-03-03T01:03:31;100531.47;;;5.54;55.19
40954;BME280;26686;50.130;8.710;2023-03-03T01:08:33;100542.53;;;5.61;55.54
40954;BME280;26686;50.130;8.710;2023-03-03T01:13:35;100532.56;;;5.50;55.58
40954;BME280;26686;50.130;8.710;2023-03-03T01:18:38;100544.75;;;5.69;54.97
40954;BME280;26686;50.130;8.710;2023-03-03T01:23:41;100534.69;;;5.59;55.71
40954;BME280;26686;50.130;8.710;2023-03-03T01:28:43;100537.50;;;5.56;56.18
40954;BME280;26686;50.130;8.710;2023-03-03T01:33:45;100536.38;;;5.44;56.31
40954;BME280;26686;50.130;8.710;2023-03-03T01:38:46;100541.00;;;5.41;57.01
40954;BME280;26686;50.130;8.710;2023-03-03T01:43:49;100541.16;;;5.38;56.85
40954;BME280;26686;50.130;8.710;2023-03-03T01:48:53;100527.16;;;5.36;56.93
40954;BME280;26686;50.130;8.710;2023-03-03T01:54:01;100532.78;;;5.29;58.05
40954;BME280;26686;50.130;8.710;2023-03-03T01:59:09;100525.81;;;5.28;57.96
40954;BME280;26686;50.130;8.710;2023-03-03T02:04:13;100502.94;;;5.11;58.15
40954;BME280;26686;50.130;8.710;2023-03-03T02:14:44;100515.66;;;5.21;58.49
40954;BME280;26686;50.130;8.710;2023-03-03T02:20:03;100529.38;;;5.27;57.84
40954;BME280;26686;50.130;8.710;2023-03-03T02:25:10;100531.22;;;5.25;57.71
40954;BME280;26686;50.130;8.710;2023-03-03T02:30:18;100528.75;;;5.22;58.14
40954;BME280;26686;50.130;8.710;2023-03-03T02:40:36;100528.66;;;5.08;58.66
40954;BME280;26686;50.130;8.710;2023-03-03T02:45:42;100511.88;;;4.93;58.96
40954;BME280;26686;50.130;8.710;2023-03-03T02:50:44;100537.16;;;4.97;59.28
40954;BME280;26686;50.130;8.710;2023-03-03T02:55:45;100536.13;;;5.00;59.02
40954;BME280;26686;50.130;8.710;2023-03-03T03:00:47;100530.72;;;4.85;59.23
40954;BME280;26686;50.130;8.710;2023-03-03T03:05:49;100545.31;;;4.92;59.28
40954;BME280;26686;50.130;8.710;2023-03-03T03:10:51;100535.06;;;4.86;59.48
40954;BME280;26686;50.130;8.710;2023-03-03T03:15:52;100542.38;;;4.81;59.80
40954;BME280;26686;50.130;8.710;2023-03-03T03:20:54;100541.78;;;4.76;60.14
40954;BME280;26686;50.130;8.710;2023-03-03T03:25:55;100538.41;;;4.72;60.29
40954;BME280;26686;50.130;8.710;2023-03-03T03:30:57;100546.41;;;4.71;60.50
40954;BME280;26686;50.130;8.710;2023-03-03T03:35:58;100545.41;;;4.73;59.65
40954;BME280;26686;50.130;8.710;2023-03-03T03:41:00;100550.59;;;4.57;60.56
40954;BME280;26686;50.130;8.710;2023-03-03T03:46:02;100553.78;;;4.47;61.50
40954;BME280;26686;50.130;8.710;2023-03-03T03:51:03;100563.34;;;4.49;61.32
40954;BME280;26686;50.130;8.710;2023-03-03T03:56:05;100555.66;;;4.45;61.79
40954;BME280;26686;50.130;8.710;2023-03-03T04:01:07;100560.22;;;4.41;61.77
40954;BME280;26686;50.130;8.710;2023-03-03T04:06:09;100561.00;;;4.43;61.48
40954;BME280;26686;50.130;8.710;2023-03-03T04:11:10;100559.38;;;4.40;62.09
40954;BME280;26686;50.130;8.710;2023-03-03T04:16:12;100571.69;;;4.40;61.66
40954;BME280;26686;50.130;8.710;2023-03-03T04:21:14;100553.84;;;4.28;61.81
40954;BME280;26686;50.130;8.710;2023-03-03T04:26:15;100565.25;;;4.28;62.21
40954;BME280;26686;50.130;8.710;2023-03-03T04:31:17;100570.03;;;4.20;62.42
40954;BME280;26686;50.130;8.710;2023-03-03T04:36:20;100564.22;;;4.13;62.68
40954;BME280;26686;50.130;8.710;2023-03-03T04:41:22;100566.22;;;4.08;62.65
40954;BME280;26686;50.130;8.710;2023-03-03T04:46:23;100573.41;;;4.04;63.09
40954;BME280;26686;50.130;8.710;2023-03-03T04:51:25;100581.53;;;4.00;62.90
40954;BME280;26686;50.130;8.710;2023-03-03T04:56:29;100576.44;;;3.97;63.05
40954;BME280;26686;50.130;8.710;2023-03-03T05:01:31;100573.28;;;3.88;63.36
40954;BME280;26686;50.130;8.710;2023-03-03T05:06:33;100589.09;;;3.88;63.31
40954;BME280;26686;50.130;8.710;2023-03-03T05:11:34;100588.09;;;3.72;63.67
40954;BME280;26686;50.130;8.710;2023-03-03T05:16:36;100594.25;;;3.72;64.09
40954;BME280;26686;50.130;8.710;2023-03-03T05:21:38;100601.25;;;3.72;64.25
40954;BME280;26686;50.130;8.710;2023-03-03T05:26:43;100597.25;;;3.65;64.74
40954;BME280;26686;50.130;8.710;2023-03-03T05:31:44;100596.56;;;3.60;65.02
40954;BME280;26686;50.130;8.710;2023-03-03T05:36:46;100589.09;;;3.50;65.19
40954;BME280;26686;50.130;8.710;2023-03-03T05:41:48;100611.06;;;3.49;65.51
40954;BME280;26686;50.130;8.710;2023-03-03T05:46:49;100598.84;;;3.48;65.62
40954;BME280;26686;50.130;8.710;2023-03-03T05:51:50;100615.44;;;3.50;66.20
40954;BME280;26686;50.130;8.710;2023-03-03T05:56:52;100601.34;;;3.51;65.85
40954;BME280;26686;50.130;8.710;2023-03-03T06:01:53;100619.72;;;3.53;66.31
40954;BME280;26686;50.130;8.710;2023-03-03T06:06:55;100627.09;;;3.64;66.03
40954;BME280;26686;50.130;8.710;2023-03-03T06:11:56;100639.34;;;3.65;66.06
40954;BME280;26686;50.130;8.710;2023-03-03T06:16:58;100638.13;;;3.72;66.04
40954;BME280;26686;50.130;8.710;2023-03-03T06:21:59;100639.47;;;3.62;66.52
40954;BME280;26686;50.130;8.710;2023-03-03T06:27:01;100657.13;;;3.60;66.53
40954;BME280;26686;50.130;8.710;2023-03-03T06:32:02;100661.13;;;3.68;66.38
40954;BME280;26686;50.130;8.710;2023-03-03T06:37:05;100667.09;;;3.72;65.83
40954;BME280;26686;50.130;8.710;2023-03-03T06:42:07;100674.84;;;3.75;65.25
40954;BME280;26686;50.130;8.710;2023-03-03T06:47:09;100670.81;;;3.68;65.84
40954;BME280;26686;50.130;8.710;2023-03-03T06:52:22;100687.59;;;3.65;65.42
40954;BME280;26686;50.130;8.710;2023-03-03T06:57:30;100692.59;;;3.71;65.79
40954;BME280;26686;50.130;8.710;2023-03-03T07:02:32;100709.47;;;3.86;65.45
40954;BME280;26686;50.130;8.710;2023-03-03T07:07:33;100708.16;;;3.76;66.11
40954;BME280;26686;50.130;8.710;2023-03-03T07:12:35;100717.38;;;3.86;65.56
40954;BME280;26686;50.130;8.710;2023-03-03T07:17:46;100724.59;;;3.81;66.01
40954;BME280;26686;50.130;8.710;2023-03-03T07:22:51;100721.66;;;4.08;65.62
40954;BME280;26686;50.130;8.710;2023-03-03T07:27:58;100720.38;;;4.17;64.96
40954;BME280;26686;50.130;8.710;2023-03-03T07:33:00;100749.78;;;4.07;64.41
40954;BME280;26686;50.130;8.710;2023-03-03T07:38:03;100746.25;;;4.09;64.80
40954;BME280;26686;50.130;8.710;2023-03-03T07:43:35;100754.56;;;4.18;64.00
40954;BME280;26686;50.130;8.710;2023-03-03T07:48:38;100715.09;;;3.98;64.61
40954;BME280;26686;50.130;8.710;2023-03-03T07:53:42;100778.81;;;4.27;64.24
40954;BME280;26686;50.130;8.710;2023-03-03T07:58:43;100755.28;;;4.22;64.04
40954;BME280;26686;50.130;8.710;2023-03-03T08:03:46;100776.66;;;4.35;64.03
40954;BME280;26686;50.130;8.710;2023-03-03T08:08:49;100775.53;;;4.40;63.71
40954;BME280;26686;50.130;8.710;2023-03-03T08:13:51;100772.13;;;4.38;63.62
40954;BME280;26686;50.130;8.710;2023-03-03T08:18:54;100779.66;;;4.46;63.63
40954;BME280;26686;50.130;8.710;2023-03-03T08:23:59;100764.97;;;4.59;63.19
40954;BME280;26686;50.130;8.710;2023-03-03T08:29:01;100770.56;;;4.71;62.82
40954;BME280;26686;50.130;8.710;2023-03-03T08:34:02;100777.19;;;4.80;61.94
40954;BME280;26686;50.130;8.710;2023-03-03T08:39:05;100773.09;;;4.55;62.55
40954;BME280;26686;50.130;8.710;2023-03-03T08:44:07;100791.59;;;4.91;61.81
40954;BME280;26686;50.130;8.710;2023-03-03T08:49:08;100772.66;;;5.01;61.37
40954;BME280;26686;50.130;8.710;2023-03-03T08:54:10;100792.97;;;5.35;60.07
40954;BME280;26686;50.130;8.710;2023-03-03T08:59:12;100789.09;;;5.42;59.39
40954;BME280;26686;50.130;8.710;2023-03-03T09:04:14;100790.94;;;5.58;58.74
40954;BME280;26686;50.130;8.710;2023-03-03T09:09:15;100784.78;;;5.75;58.26
40954;BME280;26686;50.130;8.710;2023-03-03T09:14:17;100770.72;;;5.74;57.80
40954;BME280;26686;50.130;8.710;2023-03-03T09:19:28;100796.34;;;5.90;57.46
40954;BME280;26686;50.130;8.710;2023-03-03T09:24:34;100800.97;;;6.04;57.39
40954;BME280;26686;50.130;8.710;2023-03-03T09:29:36;100801.56;;;6.09;57.00
40954;BME280;26686;50.130;8.710;2023-03-03T09:34:41;100804.34;;;6.23;56.43
40954;BME280;26686;50.130;8.710;2023-03-03T09:39:43;100802.88;;;6.33;55.72
40954;BME280;26686;50.130;8.710;2023-03-03T09:50:29;100806.47;;;7.28;53.50
40954;BME280;26686;50.130;8.710;2023-03-03T09:55:52;100809.09;;;8.03;51.09
40954;BME280;26686;50.130;8.710;2023-03-03T10:00:59;100803.97;;;8.58;49.82
40954;BME280;26686;50.130;8.710;2023-03-03T10:17:05;100820.47;;;12.62;41.22
40954;BME280;26686;50.130;8.710;2023-03-03T10:22:17;100826.00;;;14.11;37.36
40954;BME280;26686;50.130;8.710;2023-03-03T10:53:59;100825.50;;;18.85;29.01
40954;BME280;26686;50.130;8.710;2023-03-03T10:59:19;100825.81;;;20.63;25.93
40954;BME280;26686;50.130;8.710;2023-03-03T11:05:17;100822.91;;;22.12;23.73
40954;BME280;26686;50.130;8.710;2023-03-03T11:10:32;100828.00;;;22.59;23.20
40954;BME280;26686;50.130;8.710;2023-03-03T11:21:14;100823.53;;;24.53;20.77
40954;BME280;26686;50.130;8.710;2023-03-03T11:26:37;100817.81;;;24.96;19.76
40954;BME280;26686;50.130;8.710;2023-03-03T11:32:25;100808.75;;;25.71;19.36
40954;BME280;26686;50.130;8.710;2023-03-03T11:37:34;100795.91;;;25.24;19.69
40954;BME280;26686;50.130;8.710;2023-03-03T11:43:12;100789.41;;;26.19;18.67
40954;BME280;26686;50.130;8.710;2023-03-03T12:04:53;100769.59;;;28.89;16.33
40954;BME280;26686;50.130;8.710;2023-03-03T12:15:26;100759.88;;;29.05;15.68
40954;BME280;26686;50.130;8.710;2023-03-03T12:20:55;100745.31;;;29.35;15.32
40954;BME280;26686;50.130;8.710;2023-03-03T12:37:04;100726.03;;;29.89;14.44
40954;BME280;26686;50.130;8.710;2023-03-03T12:47:40;100718.63;;;31.34;13.42
40954;BME280;26686;50.130;8.710;2023-03-03T13:09:18;100703.06;;;30.77;13.59
40954;BME280;26686;50.130;8.710;2023-03-03T13:14:38;100691.53;;;29.93;14.51
40954;BME280;26686;50.130;8.710;2023-03-03T13:20:00;100685.91;;;30.00;14.39
40954;BME280;26686;50.130;8.710;2023-03-03T13:25:30;100688.06;;;30.39;13.94
40954;BME280;26686;50.130;8.710;2023-03-03T13:30:38;100684.72;;;30.37;13.53
40954;BME280;26686;50.130;8.710;2023-03-03T13:35:45;100681.88;;;31.40;13.13
40954;BME280;26686;50.130;8.710;2023-03-03T13:40:59;100680.59;;;31.48;13.14
40954;BME280;26686;50.130;8.710;2023-03-03T13:56:34;100670.56;;;32.42;12.50
40954;BME280;26686;50.130;8.710;2023-03-03T14:02:42;100656.63;;;32.54;12.22
40954;BME280;26686;50.130;8.710;2023-03-03T14:07:27;100663.19;;;32.48;12.23
40954;BME280;26686;50.130;8.710;2023-03-03T14:18:23;100649.97;;;32.50;11.97
40954;BME280;26686;50.130;8.710;2023-03-03T14:28:49;100645.38;;;30.60;13.51
40954;BME280;26686;50.130;8.710;2023-03-03T14:33:59;100644.19;;;30.56;13.62
40954;BME280;26686;50.130;8.710;2023-03-03T14:39:01;100634.44;;;30.19;13.59
40954;BME280;26686;50.130;8.710;2023-03-03T14:44:24;100639.50;;;30.27;13.42
40954;BME280;26686;50.130;8.710;2023-03-03T14:49:34;100642.34;;;30.04;13.49
40954;BME280;26686;50.130;8.710;2023-03-03T14:54:38;100636.00;;;29.39;14.23
40954;BME280;26686;50.130;8.710;2023-03-03T14:59:59;100637.53;;;26.06;16.50
40954;BME280;26686;50.130;8.710;2023-03-03T15:05:26;100635.09;;;22.98;19.58
40954;BME280;26686;50.130;8.710;2023-03-03T15:15:49;100629.31;;;19.03;24.72
40954;BME280;26686;50.130;8.710;2023-03-03T15:20:58;100635.88;;;17.74;26.12
40954;BME280;26686;50.130;8.710;2023-03-03T15:26:09;100634.44;;;16.83;27.30
40954;BME280;26686;50.130;8.710;2023-03-03T15:36:39;100622.31;;;15.12;29.91
40954;BME280;26686;50.130;8.710;2023-03-03T15:42:06;100643.19;;;14.89;30.95
40954;BME280;26686;50.130;8.710;2023-03-03T16:03:12;100633.38;;;13.38;33.70
40954;BME280;26686;50.130;8.710;2023-03-03T16:08:22;100639.94;;;12.92;34.30
40954;BME280;26686;50.130;8.710;2023-03-03T16:24:33;100641.72;;;12.06;35.99
40954;BME280;26686;50.130;8.710;2023-03-03T16:40:22;100658.88;;;11.45;37.62
40954;BME280;26686;50.130;8.710;2023-03-03T16:45:37;100663.56;;;11.19;38.25
40954;BME280;26686;50.130;8.710;2023-03-03T16:50:53;100668.38;;;11.13;40.45
40954;BME280;26686;50.130;8.710;2023-03-03T16:56:20;100678.63;;;10.95;39.22
40954;BME280;26686;50.130;8.710;2023-03-03T17:07:11;100678.31;;;10.52;40.46
40954;BME280;26686;50.130;8.710;2023-03-03T17:12:22;100690.94;;;10.37;41.44
40954;BME280;26686;50.130;8.710;2023-03-03T17:17:57;100694.22;;;10.27;41.37
40954;BME280;26686;50.130;8.710;2023-03-03T17:28:45;100703.66;;;9.95;41.59
40954;BME280;26686;50.130;8.710;2023-03-03T17:34:01;100714.53;;;9.66;42.26
40954;BME280;26686;50.130;8.710;2023-03-03T17:39:16;100720.59;;;9.55;42.22
40954;BME280;26686;50.130;8.710;2023-03-03T17:44:40;100721.50;;;9.41;42.74
40954;BME280;26686;50.130;8.710;2023-03-03T17:49:52;100736.78;;;9.25;43.14
40954;BME280;26686;50.130;8.710;2023-03-03T18:17:14;100757.28;;;8.41;44.55
40954;BME280;26686;50.130;8.710;2023-03-03T18:37:58;100770.72;;;8.09;45.45
40954;BME280;26686;50.130;8.710;2023-03-03T18:49:08;100787.66;;;7.92;47.14
40954;BME280;26686;50.130;8.710;2023-03-03T18:59:48;100801.25;;;7.71;47.27
40954;BME280;26686;50.130;8.710;2023-03-03T19:04:55;100812.59;;;7.59;47.48
40954;BME280;26686;50.130;8.710;2023-03-03T19:15:49;100817.44;;;7.36;48.54
40954;BME280;26686;50.130;8.710;2023-03-03T19:20:59;100818.81;;;7.28;48.94
40954;BME280;26686;50.130;8.710;2023-03-03T19:52:22;100828.25;;;6.69;49.94
40954;BME280;26686;50.130;8.710;2023-03-03T20:08:40;100832.50;;;6.40;50.70
40954;BME280;26686;50.130;8.710;2023-03-03T20:19:01;100833.59;;;6.20;51.70
40954;BME280;26686;50.130;8.710;2023-03-03T20:24:37;100842.53;;;6.17;51.79
40954;BME280;26686;50.130;8.710;2023-03-03T20:30:41;100834.69;;;5.98;52.44
40954;BME280;26686;50.130;8.710;2023-03-03T20:35:57;100846.72;;;6.04;52.62
40954;BME280;26686;50.130;8.710;2023-03-03T20:41:21;100866.72;;;6.10;52.71
40954;BME280;26686;50.130;8.710;2023-03-03T20:51:42;100857.03;;;5.91;53.21
40954;BME280;26686;50.130;8.710;2023-03-03T20:57:21;100845.69;;;5.72;53.17
40954;BME280;26686;50.130;8.710;2023-03-03T21:02:42;100873.69;;;5.76;53.46
40954;BME280;26686;50.130;8.710;2023-03-03T21:07:56;100872.13;;;5.72;53.95
40954;BME280;26686;50.130;8.710;2023-03-03T21:13:24;100864.34;;;5.69;54.36
40954;BME280;26686;50.130;8.710;2023-03-03T21:18:26;100869.03;;;5.63;54.53
40954;BME280;26686;50.130;8.710;2023-03-03T21:23:28;100875.06;;;5.65;54.61
40954;BME280;26686;50.130;8.710;2023-03-03T21:28:31;100864.91;;;5.58;54.55
40954;BME280;26686;50.130;8.710;2023-03-03T21:33:53;100868.38;;;5.58;54.60
40954;BME280;26686;50.130;8.710;2023-03-03T21:38:55;100875.91;;;5.48;54.88
40954;BME280;26686;50.130;8.710;2023-03-03T21:43:58;100865.81;;;5.39;55.02
40954;BME280;26686;50.130;8.710;2023-03-03T21:48:59;100875.50;;;5.39;55.61
40954;BME280;26686;50.130;8.710;2023-03-03T21:54:01;100875.81;;;5.32;55.74
40954;BME280;26686;50.130;8.710;2023-03-03T21:59:02;100874.38;;;5.25;55.69
40954;BME280;26686;50.130;8.710;2023-03-03T22:04:04;100884.69;;;5.12;56.72
40954;BME280;26686;50.130;8.710;2023-03-03T22:09:06;100892.59;;;5.12;56.72
40954;BME280;26686;50.130;8.710;2023-03-03T22:14:08;100885.69;;;5.10;56.76
40954;BME280;26686;50.130;8.710;2023-03-03T22:19:09;100898.47;;;5.00;57.04
40954;BME280;26686;50.130;8.710;2023-03-03T22:24:11;100889.97;;;4.93;57.86
40954;BME280;26686;50.130;8.710;2023-03-03T22:29:13;100902.09;;;4.98;57.74
40954;BME280;26686;50.130;8.710;2023-03-03T22:34:16;100882.00;;;4.76;58.51
40954;BME280;26686;50.130;8.710;2023-03-03T22:39:18;100894.91;;;4.82;58.43
40954;BME280;26686;50.130;8.710;2023-03-03T22:44:20;100900.88;;;4.86;58.11
40954;BME280;26686;50.130;8.710;2023-03-03T22:49:21;100913.16;;;4.87;58.42
40954;BME280;26686;50.130;8.710;2023-03-03T22:54:23;100905.75;;;4.76;58.57
40954;BME280;26686;50.130;8.710;2023-03-03T22:59:25;100901.81;;;4.66;59.52
40954;BME280;26686;50.130;8.710;2023-03-03T23:04:26;100904.53;;;4.64;59.23
40954;BME280;26686;50.130;8.710;2023-03-03T23:09:28;100894.19;;;4.59;59.28
40954;BME280;26686;50.130;8.710;2023-03-03T23:14:29;100894.63;;;4.49;59.92
40954;BME280;26686;50.130;8.710;2023-03-03T23:19:30;100904.47;;;4.45;60.19
40954;BME280;26686;50.130;8.710;2023-03-03T23:24:32;100908.78;;;4.48;59.98
40954;BME280;26686;50.130;8.710;2023-03-03T23:29:33;100881.72;;;4.23;59.76
40954;BME280;26686;50.130;8.710;2023-03-03T23:34:35;100904.91;;;4.36;60.96
40954;BME280;26686;50.130;8.710;2023-03-03T23:39:37;100903.16;;;4.35;61.25
40954;BME280;26686;50.130;8.710;2023-03-03T23:44:40;100897.41;;;4.27;61.08
40954;BME280;26686;50.130;8.710;2023-03-03T23:49:42;100913.06;;;4.30;60.95
40954;BME280;26686;50.130;8.710;2023-03-03T23:54:43;100913.16;;;4.28;60.94
40954;BME280;26686;50.130;8.710;2023-03-03T23:59:45;100914.00;;;4.29;60.93
